NCAR-RAP Real-Time Weather Data

Output produced by METARs form (18 December 2017  10:40 UTC)
found at http://weather.rap.ucar.edu/surface/
 
KDCA 180952Z 07003KT 10SM BKN055 05/02 A3012 RMK AO2 SLP200 T00500017
KDCA 180852Z 20003KT 10SM OVC055 06/02 A3012 RMK AO2 SLP199 T00610017 56006
KDCA 180752Z 18003KT 10SM OVC055 06/02 A3013 RMK AO2 SLP201 T00560017
KDCA 180652Z 16003KT 10SM OVC060 06/02 A3013 RMK AO2 SLP201 T00560017
KDCA 180552Z 14003KT 10SM OVC060 06/02 A3014 RMK AO2 SLP205 T00560017 10083 20056 58011
KDCA 180452Z 00000KT 10SM OVC060 07/01 A3016 RMK AO2 SLP214 T00720011 401001011
KDCA 180352Z 00000KT 10SM OVC060 07/01 A3017 RMK AO2 SLP214 T00720011
KDCA 180252Z 20005KT 10SM OVC065 07/01 A3017 RMK AO2 SLP216 T00720011 56011
KDCA 180152Z 19003KT 10SM BKN075 OVC085 08/00 A3018 RMK AO2 SLP218 T00780000
KDCA 180052Z 18007KT 10SM SCT075 OVC100 08/00 A3019 RMK AO2 SLP223 T00780000
KDCA 172352Z 15003KT 10SM OVC085 08/M01 A3020 RMK AO2 SLP227 T00781006 10100 20067 50008
KDCA 172252Z 16005KT 10SM BKN100 OVC120 08/00 A3022 RMK AO2 SLP233 T00780000
KDCA 172152Z 16003KT 10SM OVC120 08/M01 A3020 RMK AO2 SLP225 T00831011
KDCA 172052Z 17004KT 10SM BKN110 OVC250 08/02 A3018 RMK AO2 SLP219 T00830017 56018
KDCA 171952Z 24003KT 10SM BKN120 OVC250 10/00 A3020 RMK AO2 SLP228 T01000000
KDCA 171852Z 19004KT 10SM BKN120 OVC250 08/01 A3020 RMK AO2 SLP227 T00830006
KDCA 171752Z COR 19006KT 10SM BKN120 OVC250 09/M01 A3023 RMK AO2 SLP237 T00941006 10094 20000 58009
KDCA 171652Z 17006KT 10SM BKN120 OVC250 08/00 A3026 RMK AO2 SLP248 T00780000
KDCA 171552Z 00000KT 10SM BKN120 BKN250 07/M01 A3028 RMK AO2 SLP252 T00671011
KDCA 171452Z 00000KT 10SM SCT120 BKN250 04/M01 A3026 RMK AO2 SLP246 T00441006 50001
KDCA 171352Z 18003KT 10SM SCT120 BKN200 02/M01 A3028 RMK AO2 SLP253 T00221006
KDCA 171252Z 00000KT 10SM BKN150 OVC200 01/M02 A3028 RMK AO2 SLP251 T00111017
KDCA 171152Z 00000KT 10SM BKN150 OVC200 01/M03 A3026 RMK AO2 SLP245 T00061028 10022 21011 53004
KDCA 171052Z 22003KT 10SM BKN200 M01/M03 A3025 RMK AO2 SLP241 T10061033
KDCA 170952Z 20004KT 10SM SCT200 01/M03 A3024 RMK AO2 SLP239 T00061028
KDCA 170852Z 00000KT 10SM FEW200 00/M03 A3025 RMK AO2 SLP241 T00001033 50010
KDCA 170752Z 17003KT 10SM FEW200 00/M02 A3025 RMK AO2 SLP243 T00001022
KDCA 170652Z 00000KT 10SM FEW200 00/M03 A3023 RMK AO2 SLP237 T00001033
KDCA 170552Z 00000KT 10SM FEW200 02/M02 A3022 RMK AO2 SLP231 T00171022 10050 20011 50008
KDCA 170452Z 00000KT 10SM CLR 02/M03 A3022 RMK AO2 SLP233 T00221028 400891039
KDCA 170352Z 21003KT 10SM CLR 03/M02 A3021 RMK AO2 SLP228 T00281022
KDCA 170252Z 19004KT 10SM CLR 04/M03 A3019 RMK AO2 SLP223 T00391033 51014
KDCA 170152Z 20003KT 10SM CLR 05/M04 A3018 RMK AO2 SLP220 T00501044
KDCA 170052Z 20005KT 10SM CLR 04/M04 A3016 RMK AO2 SLP213 T00441039
KDCA 162352Z 18006KT 10SM CLR 04/M02 A3015 RMK AO2 SLP209 T00441022 10089 20044 53022
KDCA 162252Z 21006KT 10SM FEW250 06/M04 A3013 RMK AO2 SLP203 T00611044
KDCA 162152Z 20010KT 10SM FEW100 FEW250 07/M05 A3010 RMK AO2 SLP194 T00721050
KDCA 162052Z 20014G18KT 10SM FEW100 08/M05 A3009 RMK AO2 SLP188 T00831050 56006
KDCA 161952Z 20011KT 10SM SCT100 SCT150 08/M04 A3009 RMK AO2 SLP188 T00831044
KDCA 161852Z 20013G20KT 10SM FEW080 FEW150 08/M05 A3009 RMK AO2 SLP187 T00831050
KDCA 161752Z 21012G19KT 10SM FEW060 FEW250 08/M05 A3011 RMK AO2 SLP194 T00781050 10078 21022 58023
KDCA 161652Z 22014G21KT 10SM SCT150 07/M06 A3013 RMK AO2 SLP202 T00671056
KDCA 161552Z 20012KT 10SM FEW150 SCT250 05/M05 A3016 RMK AO2 SLP214 T00501050
KDCA 161452Z 22011KT 10SM FEW150 SCT250 03/M06 A3018 RMK AO2 SLP218 T00281056 51010
KDCA 161352Z 21007KT 10SM FEW140 SCT250 01/M05 A3017 RMK AO2 SLP216 T00061050
KDCA 161252Z 22006KT 10SM FEW130 BKN250 M02/M06 A3017 RMK AO2 SLP215 T10171061
KDCA 161152Z COR 21005KT 10SM FEW060 FEW120 SCT220 M02/M06 A3015 RMK AO2 SLP207 70001 T10171056 11011 21033 50015
KDCA 161052Z 22007KT 10SM CLR M02/M07 A3015 RMK AO2 SLP208 T10221067
KDCA 160952Z 21005KT 10SM FEW060 M02/M06 A3011 RMK AO2 SLP196 T10171061
KDCA 160852Z 21008KT 10SM OVC060 M02/M05 A3010 RMK AO2 SLP193 T10171050 53017
KDCA 160752Z 22006KT 10SM OVC060 M02/M05 A3009 RMK AO2 SLP187 T10221050
KDCA 160652Z 20008KT 10SM BKN060 M03/M05 A3006 RMK AO2 SLP178 T10281050
KDCA 160552Z 20007KT 10SM BKN060 M03/M05 A3005 RMK AO2 SLP175 T10281050 11017 21039 53009
KDCA 160452Z 19005KT 9SM FEW060 M03/M05 A3004 RMK AO2 SLP171 T10331050 410061033
KDCA 160352Z 20006KT 8SM SCT060 M03/M05 A3003 RMK AO2 SLP169 T10331050
KDCA 160252Z 19005KT 9SM FEW060 M03/M04 A3002 RMK AO2 SLP166 T10281044 51012
KDCA 160152Z 24004KT 10SM FEW060 M02/M04 A3002 RMK AO2 SLP165 T10221044
KDCA 160052Z 21004KT 10SM FEW055 M02/M04 A3000 RMK AO2 SLP158 T10221044
KDCA 152352Z 27005KT 10SM SCT040 M02/M04 A2999 RMK AO2 SLP154 60001 T10171044 11011 21022 53013
KDCA 152252Z 25004KT 10SM FEW012 BKN044 M02/M04 A2996 RMK AO2 SLP143 T10171044